sensor_id;sensor_type;location;lat;lon;timestamp;P1;durP1;ratioP1;P2;durP2;ratioP2
18455;SDS011;9357;49.900;8.208;2023-09-18T00:01:09;10.23;;;5.80;;
18455;SDS011;9357;49.900;8.208;2023-09-18T00:02:42;9.47;;;5.47;;
18455;SDS011;9357;49.900;8.208;2023-09-18T00:04:14;7.73;;;5.17;;
18455;SDS011;9357;49.900;8.208;2023-09-18T00:05:47;7.27;;;5.57;;
18455;SDS011;9357;49.900;8.208;2023-09-18T00:07:20;7.60;;;5.40;;
18455;SDS011;9357;49.900;8.208;2023-09-18T00:08:52;6.23;;;5.17;;
18455;SDS011;9357;49.900;8.208;2023-09-18T00:10:25;5.43;;;4.57;;
18455;SDS011;9357;49.900;8.208;2023-09-18T00:11:59;6.83;;;5.77;;
18455;SDS011;9357;49.900;8.208;2023-09-18T00:13:31;6.90;;;5.30;;
18455;SDS011;9357;49.900;8.208;2023-09-18T00:15:06;9.33;;;5.13;;
18455;SDS011;9357;49.900;8.208;2023-09-18T00:16:40;5.77;;;4.97;;
18455;SDS011;9357;49.900;8.208;2023-09-18T00:18:29;8.73;;;4.90;;
18455;SDS011;9357;49.900;8.208;2023-09-18T00:20:02;8.57;;;5.17;;
18455;SDS011;9357;49.900;8.208;2023-09-18T00:21:36;10.83;;;5.07;;
18455;SDS011;9357;49.900;8.208;2023-09-18T00:23:08;5.47;;;4.97;;
18455;SDS011;9357;49.900;8.208;2023-09-18T00:24:41;7.23;;;5.33;;
18455;SDS011;9357;49.900;8.208;2023-09-18T00:26:13;7.63;;;5.23;;
18455;SDS011;9357;49.900;8.208;2023-09-18T00:27:45;8.33;;;5.37;;
18455;SDS011;9357;49.900;8.208;2023-09-18T00:29:18;8.07;;;5.57;;
18455;SDS011;9357;49.900;8.208;2023-09-18T00:30:52;7.97;;;5.50;;
18455;SDS011;9357;49.900;8.208;2023-09-18T00:32:24;6.83;;;5.50;;
18455;SDS011;9357;49.900;8.208;2023-09-18T00:33:56;8.67;;;5.50;;
18455;SDS011;9357;49.900;8.208;2023-09-18T00:35:29;8.10;;;5.67;;
18455;SDS011;9357;49.900;8.208;2023-09-18T00:37:01;8.43;;;6.23;;
18455;SDS011;9357;49.900;8.208;2023-09-18T00:38:34;9.43;;;5.33;;
18455;SDS011;9357;49.900;8.208;2023-09-18T00:40:06;6.97;;;6.27;;
18455;SDS011;9357;49.900;8.208;2023-09-18T00:41:39;8.47;;;6.20;;
18455;SDS011;9357;49.900;8.208;2023-09-18T00:43:12;9.90;;;5.87;;
18455;SDS011;9357;49.900;8.208;2023-09-18T00:44:45;8.07;;;6.73;;
18455;SDS011;9357;49.900;8.208;2023-09-18T00:46:18;9.53;;;6.87;;
18455;SDS011;9357;49.900;8.208;2023-09-18T00:47:50;12.10;;;6.63;;
18455;SDS011;9357;49.900;8.208;2023-09-18T00:49:23;8.63;;;6.20;;
18455;SDS011;9357;49.900;8.208;2023-09-18T00:50:56;8.27;;;6.60;;
18455;SDS011;9357;49.900;8.208;2023-09-18T00:52:28;8.83;;;6.40;;
18455;SDS011;9357;49.900;8.208;2023-09-18T00:54:00;12.07;;;6.47;;
18455;SDS011;9357;49.900;8.208;2023-09-18T00:55:33;11.57;;;6.43;;
18455;SDS011;9357;49.900;8.208;2023-09-18T00:57:05;7.23;;;5.73;;
18455;SDS011;9357;49.900;8.208;2023-09-18T00:58:39;9.30;;;6.10;;
18455;SDS011;9357;49.900;8.208;2023-09-18T01:00:13;7.40;;;5.77;;
18455;SDS011;9357;49.900;8.208;2023-09-18T01:01:50;6.53;;;5.50;;
18455;SDS011;9357;49.900;8.208;2023-09-18T01:03:23;6.93;;;5.70;;
18455;SDS011;9357;49.900;8.208;2023-09-18T01:04:57;8.87;;;5.90;;
18455;SDS011;9357;49.900;8.208;2023-09-18T01:06:30;7.57;;;5.53;;
18455;SDS011;9357;49.900;8.208;2023-09-18T01:08:02;7.33;;;5.73;;
18455;SDS011;9357;49.900;8.208;2023-09-18T01:09:36;6.63;;;5.93;;
18455;SDS011;9357;49.900;8.208;2023-09-18T01:11:10;7.37;;;6.13;;
18455;SDS011;9357;49.900;8.208;2023-09-18T01:12:52;9.23;;;6.03;;
18455;SDS011;9357;49.900;8.208;2023-09-18T01:14:28;7.20;;;6.00;;
18455;SDS011;9357;49.900;8.208;2023-09-18T01:16:06;7.57;;;5.80;;
18455;SDS011;9357;49.900;8.208;2023-09-18T01:17:44;10.67;;;6.13;;
18455;SDS011;9357;49.900;8.208;2023-09-18T01:19:24;10.43;;;5.80;;
18455;SDS011;9357;49.900;8.208;2023-09-18T01:21:06;10.60;;;6.50;;
18455;SDS011;9357;49.900;8.208;2023-09-18T01:22:40;9.83;;;6.17;;
18455;SDS011;9357;49.900;8.208;2023-09-18T01:24:12;9.37;;;6.23;;
18455;SDS011;9357;49.900;8.208;2023-09-18T01:25:44;10.03;;;6.33;;
18455;SDS011;9357;49.900;8.208;2023-09-18T01:27:17;8.50;;;6.43;;
18455;SDS011;9357;49.900;8.208;2023-09-18T01:28:50;9.10;;;6.60;;
18455;SDS011;9357;49.900;8.208;2023-09-18T01:30:23;8.27;;;6.63;;
18455;SDS011;9357;49.900;8.208;2023-09-18T01:31:55;11.80;;;6.50;;
18455;SDS011;9357;49.900;8.208;2023-09-18T01:33:29;7.77;;;6.10;;
18455;SDS011;9357;49.900;8.208;2023-09-18T01:35:02;8.93;;;5.83;;
18455;SDS011;9357;49.900;8.208;2023-09-18T01:36:38;9.57;;;5.87;;
18455;SDS011;9357;49.900;8.208;2023-09-18T01:38:11;8.27;;;5.47;;
18455;SDS011;9357;49.900;8.208;2023-09-18T01:39:45;9.80;;;5.33;;
18455;SDS011;9357;49.900;8.208;2023-09-18T01:41:19;9.30;;;4.70;;
18455;SDS011;9357;49.900;8.208;2023-09-18T01:42:51;7.83;;;4.87;;
18455;SDS011;9357;49.900;8.208;2023-09-18T01:44:24;5.33;;;4.77;;
18455;SDS011;9357;49.900;8.208;2023-09-18T01:45:56;7.53;;;4.43;;
18455;SDS011;9357;49.900;8.208;2023-09-18T01:47:30;8.07;;;4.37;;
18455;SDS011;9357;49.900;8.208;2023-09-18T01:49:02;10.23;;;6.27;;
18455;SDS011;9357;49.900;8.208;2023-09-18T01:50:36;10.80;;;6.90;;
18455;SDS011;9357;49.900;8.208;2023-09-18T01:52:11;8.80;;;6.90;;
18455;SDS011;9357;49.900;8.208;2023-09-18T01:53:44;10.83;;;6.53;;
18455;SDS011;9357;49.900;8.208;2023-09-18T01:55:17;7.33;;;5.20;;
18455;SDS011;9357;49.900;8.208;2023-09-18T01:56:50;7.13;;;5.10;;
18455;SDS011;9357;49.900;8.208;2023-09-18T01:58:22;5.67;;;4.43;;
18455;SDS011;9357;49.900;8.208;2023-09-18T01:59:55;7.67;;;4.30;;
18455;SDS011;9357;49.900;8.208;2023-09-18T02:01:27;6.33;;;4.57;;
18455;SDS011;9357;49.900;8.208;2023-09-18T02:03:01;5.43;;;4.00;;
18455;SDS011;9357;49.900;8.208;2023-09-18T02:04:55;5.67;;;4.20;;
18455;SDS011;9357;49.900;8.208;2023-09-18T02:06:37;8.30;;;6.13;;
18455;SDS011;9357;49.900;8.208;2023-09-18T02:08:09;9.20;;;5.50;;
18455;SDS011;9357;49.900;8.208;2023-09-18T02:09:43;7.87;;;6.03;;
18455;SDS011;9357;49.900;8.208;2023-09-18T02:11:15;9.50;;;6.13;;
18455;SDS011;9357;49.900;8.208;2023-09-18T02:12:48;8.03;;;6.10;;
18455;SDS011;9357;49.900;8.208;2023-09-18T02:14:20;8.37;;;6.27;;
18455;SDS011;9357;49.900;8.208;2023-09-18T02:15:53;12.30;;;7.10;;
18455;SDS011;9357;49.900;8.208;2023-09-18T02:17:25;10.70;;;7.17;;
18455;SDS011;9357;49.900;8.208;2023-09-18T02:18:58;10.17;;;7.20;;
18455;SDS011;9357;49.900;8.208;2023-09-18T02:20:29;13.87;;;7.50;;
18455;SDS011;9357;49.900;8.208;2023-09-18T02:22:02;8.63;;;7.03;;
18455;SDS011;9357;49.900;8.208;2023-09-18T02:23:35;10.30;;;6.20;;
18455;SDS011;9357;49.900;8.208;2023-09-18T02:25:09;9.60;;;6.60;;
18455;SDS011;9357;49.900;8.208;2023-09-18T02:26:41;8.97;;;6.37;;
18455;SDS011;9357;49.900;8.208;2023-09-18T02:28:14;10.03;;;6.57;;
18455;SDS011;9357;49.900;8.208;2023-09-18T02:29:47;7.93;;;6.00;;
18455;SDS011;9357;49.900;8.208;2023-09-18T02:31:21;9.33;;;5.87;;
18455;SDS011;9357;49.900;8.208;2023-09-18T02:32:54;8.53;;;5.70;;
18455;SDS011;9357;49.900;8.208;2023-09-18T02:34:26;9.17;;;5.20;;
18455;SDS011;9357;49.900;8.208;2023-09-18T02:35:59;11.17;;;5.03;;
18455;SDS011;9357;49.900;8.208;2023-09-18T02:37:31;6.90;;;5.23;;
18455;SDS011;9357;49.900;8.208;2023-09-18T02:39:04;6.80;;;5.17;;
18455;SDS011;9357;49.900;8.208;2023-09-18T02:40:37;5.97;;;4.63;;
18455;SDS011;9357;49.900;8.208;2023-09-18T02:42:10;5.27;;;4.77;;
18455;SDS011;9357;49.900;8.208;2023-09-18T02:43:41;6.80;;;4.90;;
18455;SDS011;9357;49.900;8.208;2023-09-18T02:45:14;7.80;;;4.80;;
18455;SDS011;9357;49.900;8.208;2023-09-18T02:46:46;7.03;;;5.20;;
18455;SDS011;9357;49.900;8.208;2023-09-18T02:48:19;7.23;;;4.80;;
18455;SDS011;9357;49.900;8.208;2023-09-18T02:49:51;8.37;;;4.90;;
18455;SDS011;9357;49.900;8.208;2023-09-18T02:51:24;6.93;;;4.67;;
18455;SDS011;9357;49.900;8.208;2023-09-18T02:52:55;9.20;;;5.00;;
18455;SDS011;9357;49.900;8.208;2023-09-18T02:54:28;7.67;;;5.10;;
18455;SDS011;9357;49.900;8.208;2023-09-18T02:56:01;9.23;;;4.90;;
18455;SDS011;9357;49.900;8.208;2023-09-18T02:57:34;7.10;;;4.40;;
18455;SDS011;9357;49.900;8.208;2023-09-18T02:59:06;6.40;;;4.27;;
18455;SDS011;9357;49.900;8.208;2023-09-18T03:00:43;7.17;;;4.63;;
18455;SDS011;9357;49.900;8.208;2023-09-18T03:02:15;6.60;;;4.90;;
18455;SDS011;9357;49.900;8.208;2023-09-18T03:03:48;8.10;;;4.60;;
18455;SDS011;9357;49.900;8.208;2023-09-18T03:05:20;7.67;;;4.53;;
18455;SDS011;9357;49.900;8.208;2023-09-18T03:06:52;7.90;;;4.00;;
18455;SDS011;9357;49.900;8.208;2023-09-18T03:08:24;6.87;;;4.20;;
18455;SDS011;9357;49.900;8.208;2023-09-18T03:09:57;7.47;;;4.63;;
18455;SDS011;9357;49.900;8.208;2023-09-18T03:11:30;8.30;;;4.17;;
18455;SDS011;9357;49.900;8.208;2023-09-18T03:13:03;6.63;;;4.00;;
18455;SDS011;9357;49.900;8.208;2023-09-18T03:14:35;7.37;;;4.60;;
18455;SDS011;9357;49.900;8.208;2023-09-18T03:16:09;6.50;;;4.30;;
18455;SDS011;9357;49.900;8.208;2023-09-18T03:17:41;6.13;;;4.43;;
18455;SDS011;9357;49.900;8.208;2023-09-18T03:19:14;10.37;;;4.47;;
18455;SDS011;9357;49.900;8.208;2023-09-18T03:20:46;7.03;;;4.40;;
18455;SDS011;9357;49.900;8.208;2023-09-18T03:22:19;7.50;;;4.60;;
18455;SDS011;9357;49.900;8.208;2023-09-18T03:23:51;7.30;;;4.20;;
18455;SDS011;9357;49.900;8.208;2023-09-18T03:25:24;9.43;;;4.60;;
18455;SDS011;9357;49.900;8.208;2023-09-18T03:26:57;5.93;;;4.13;;
18455;SDS011;9357;49.900;8.208;2023-09-18T03:28:30;6.23;;;4.80;;
18455;SDS011;9357;49.900;8.208;2023-09-18T03:30:02;7.90;;;3.97;;
18455;SDS011;9357;49.900;8.208;2023-09-18T03:31:35;8.80;;;4.40;;
18455;SDS011;9357;49.900;8.208;2023-09-18T03:33:08;5.57;;;3.90;;
18455;SDS011;9357;49.900;8.208;2023-09-18T03:34:41;7.17;;;4.10;;
18455;SDS011;9357;49.900;8.208;2023-09-18T03:36:13;7.37;;;4.30;;
18455;SDS011;9357;49.900;8.208;2023-09-18T03:37:46;6.77;;;3.80;;
18455;SDS011;9357;49.900;8.208;2023-09-18T03:39:19;5.50;;;3.90;;
18455;SDS011;9357;49.900;8.208;2023-09-18T03:40:52;9.43;;;4.30;;
18455;SDS011;9357;49.900;8.208;2023-09-18T03:42:25;6.67;;;4.10;;
18455;SDS011;9357;49.900;8.208;2023-09-18T03:43:58;8.97;;;5.00;;
18455;SDS011;9357;49.900;8.208;2023-09-18T03:45:30;9.50;;;5.33;;
18455;SDS011;9357;49.900;8.208;2023-09-18T03:47:03;8.37;;;4.80;;
18455;SDS011;9357;49.900;8.208;2023-09-18T03:48:36;6.30;;;4.67;;
18455;SDS011;9357;49.900;8.208;2023-09-18T03:50:08;7.40;;;5.17;;
18455;SDS011;9357;49.900;8.208;2023-09-18T03:51:42;6.17;;;5.10;;
18455;SDS011;9357;49.900;8.208;2023-09-18T03:53:15;8.90;;;5.10;;
18455;SDS011;9357;49.900;8.208;2023-09-18T03:54:49;8.00;;;4.67;;
18455;SDS011;9357;49.900;8.208;2023-09-18T03:56:22;6.80;;;4.37;;
18455;SDS011;9357;49.900;8.208;2023-09-18T03:57:55;7.13;;;4.13;;
18455;SDS011;9357;49.900;8.208;2023-09-18T03:59:28;5.40;;;4.20;;
18455;SDS011;9357;49.900;8.208;2023-09-18T04:01:00;8.00;;;4.40;;
18455;SDS011;9357;49.900;8.208;2023-09-18T04:02:33;5.50;;;4.20;;
18455;SDS011;9357;49.900;8.208;2023-09-18T04:04:05;6.07;;;4.03;;
18455;SDS011;9357;49.900;8.208;2023-09-18T04:05:39;6.43;;;4.33;;
18455;SDS011;9357;49.900;8.208;2023-09-18T04:07:10;6.07;;;4.10;;
18455;SDS011;9357;49.900;8.208;2023-09-18T04:08:47;8.50;;;4.40;;
18455;SDS011;9357;49.900;8.208;2023-09-18T04:10:20;7.77;;;4.40;;
18455;SDS011;9357;49.900;8.208;2023-09-18T04:11:55;6.70;;;3.93;;
18455;SDS011;9357;49.900;8.208;2023-09-18T04:13:28;7.33;;;4.07;;
18455;SDS011;9357;49.900;8.208;2023-09-18T04:15:01;7.13;;;4.20;;
18455;SDS011;9357;49.900;8.208;2023-09-18T04:16:33;7.27;;;3.90;;
18455;SDS011;9357;49.900;8.208;2023-09-18T04:18:08;10.40;;;4.27;;
18455;SDS011;9357;49.900;8.208;2023-09-18T04:19:40;9.03;;;4.33;;
18455;SDS011;9357;49.900;8.208;2023-09-18T04:21:14;8.67;;;4.30;;
18455;SDS011;9357;49.900;8.208;2023-09-18T04:22:46;9.10;;;4.57;;
18455;SDS011;9357;49.900;8.208;2023-09-18T04:24:21;8.43;;;4.57;;
18455;SDS011;9357;49.900;8.208;2023-09-18T04:25:53;8.23;;;4.20;;
18455;SDS011;9357;49.900;8.208;2023-09-18T04:27:26;6.67;;;4.27;;
18455;SDS011;9357;49.900;8.208;2023-09-18T04:28:59;9.70;;;4.47;;
18455;SDS011;9357;49.900;8.208;2023-09-18T04:30:33;9.53;;;4.30;;
18455;SDS011;9357;49.900;8.208;2023-09-18T04:32:05;9.03;;;4.33;;
18455;SDS011;9357;49.900;8.208;2023-09-18T04:33:38;7.77;;;4.30;;
18455;SDS011;9357;49.900;8.208;2023-09-18T04:35:11;9.93;;;4.50;;
18455;SDS011;9357;49.900;8.208;2023-09-18T04:36:44;7.67;;;4.07;;
18455;SDS011;9357;49.900;8.208;2023-09-18T04:38:16;9.10;;;4.23;;
18455;SDS011;9357;49.900;8.208;2023-09-18T04:39:50;10.63;;;4.27;;
18455;SDS011;9357;49.900;8.208;2023-09-18T04:41:23;11.43;;;4.43;;
18455;SDS011;9357;49.900;8.208;2023-09-18T04:42:55;12.20;;;4.53;;
18455;SDS011;9357;49.900;8.208;2023-09-18T04:44:30;9.23;;;4.77;;
18455;SDS011;9357;49.900;8.208;2023-09-18T04:46:02;6.67;;;4.17;;
18455;SDS011;9357;49.900;8.208;2023-09-18T04:47:38;11.83;;;4.77;;
18455;SDS011;9357;49.900;8.208;2023-09-18T04:49:10;6.90;;;4.17;;
18455;SDS011;9357;49.900;8.208;2023-09-18T04:50:43;10.77;;;4.60;;
18455;SDS011;9357;49.900;8.208;2023-09-18T04:52:16;8.93;;;4.27;;
18455;SDS011;9357;49.900;8.208;2023-09-18T04:53:47;9.37;;;4.30;;
18455;SDS011;9357;49.900;8.208;2023-09-18T04:55:20;9.70;;;4.00;;
18455;SDS011;9357;49.900;8.208;2023-09-18T04:56:52;10.43;;;4.17;;
18455;SDS011;9357;49.900;8.208;2023-09-18T04:58:25;9.43;;;4.27;;
18455;SDS011;9357;49.900;8.208;2023-09-18T04:59:59;9.27;;;4.00;;
18455;SDS011;9357;49.900;8.208;2023-09-18T05:01:46;7.70;;;3.87;;
18455;SDS011;9357;49.900;8.208;2023-09-18T05:03:19;9.13;;;4.53;;
18455;SDS011;9357;49.900;8.208;2023-09-18T05:04:53;10.93;;;4.57;;
18455;SDS011;9357;49.900;8.208;2023-09-18T05:06:27;8.57;;;4.30;;
18455;SDS011;9357;49.900;8.208;2023-09-18T05:08:00;10.70;;;4.13;;
18455;SDS011;9357;49.900;8.208;2023-09-18T05:09:36;13.83;;;4.20;;
18455;SDS011;9357;49.900;8.208;2023-09-18T05:11:09;10.23;;;3.80;;
18455;SDS011;9357;49.900;8.208;2023-09-18T05:12:45;8.57;;;3.80;;
18455;SDS011;9357;49.900;8.208;2023-09-18T05:14:17;12.70;;;4.00;;
18455;SDS011;9357;49.900;8.208;2023-09-18T05:15:50;11.40;;;4.10;;
18455;SDS011;9357;49.900;8.208;2023-09-18T05:17:27;10.40;;;3.90;;
18455;SDS011;9357;49.900;8.208;2023-09-18T05:19:12;11.00;;;3.83;;
18455;SDS011;9357;49.900;8.208;2023-09-18T05:20:45;8.97;;;4.10;;
18455;SDS011;9357;49.900;8.208;2023-09-18T05:22:17;10.10;;;3.70;;
18455;SDS011;9357;49.900;8.208;2023-09-18T05:23:50;10.10;;;3.47;;
18455;SDS011;9357;49.900;8.208;2023-09-18T05:25:22;8.70;;;3.40;;
18455;SDS011;9357;49.900;8.208;2023-09-18T05:26:56;7.03;;;3.30;;
18455;SDS011;9357;49.900;8.208;2023-09-18T05:28:30;10.67;;;3.53;;
18455;SDS011;9357;49.900;8.208;2023-09-18T05:30:03;9.57;;;3.30;;
18455;SDS011;9357;49.900;8.208;2023-09-18T05:31:37;9.67;;;3.60;;
18455;SDS011;9357;49.900;8.208;2023-09-18T05:33:10;9.27;;;3.43;;
18455;SDS011;9357;49.900;8.208;2023-09-18T05:34:42;10.10;;;3.43;;
18455;SDS011;9357;49.900;8.208;2023-09-18T05:36:15;10.53;;;3.43;;
18455;SDS011;9357;49.900;8.208;2023-09-18T05:37:48;8.63;;;2.87;;
18455;SDS011;9357;49.900;8.208;2023-09-18T05:39:21;10.10;;;3.60;;
18455;SDS011;9357;49.900;8.208;2023-09-18T05:40:53;8.70;;;3.60;;
18455;SDS011;9357;49.900;8.208;2023-09-18T05:42:26;9.20;;;3.60;;
18455;SDS011;9357;49.900;8.208;2023-09-18T05:43:58;10.07;;;3.20;;
18455;SDS011;9357;49.900;8.208;2023-09-18T05:45:32;10.87;;;3.40;;
18455;SDS011;9357;49.900;8.208;2023-09-18T05:47:06;9.53;;;3.83;;
18455;SDS011;9357;49.900;8.208;2023-09-18T05:48:39;10.20;;;3.53;;
18455;SDS011;9357;49.900;8.208;2023-09-18T05:50:13;8.50;;;2.93;;
18455;SDS011;9357;49.900;8.208;2023-09-18T05:51:47;8.47;;;3.33;;
18455;SDS011;9357;49.900;8.208;2023-09-18T05:53:20;11.70;;;3.30;;
18455;SDS011;9357;49.900;8.208;2023-09-18T05:54:52;10.30;;;3.50;;
18455;SDS011;9357;49.900;8.208;2023-09-18T05:56:24;10.90;;;3.40;;
18455;SDS011;9357;49.900;8.208;2023-09-18T05:57:56;6.80;;;3.30;;
18455;SDS011;9357;49.900;8.208;2023-09-18T05:59:29;12.20;;;3.43;;
18455;SDS011;9357;49.900;8.208;2023-09-18T06:01:01;14.33;;;3.63;;
18455;SDS011;9357;49.900;8.208;2023-09-18T06:02:35;8.83;;;3.57;;
18455;SDS011;9357;49.900;8.208;2023-09-18T06:04:08;9.53;;;3.80;;
18455;SDS011;9357;49.900;8.208;2023-09-18T06:05:41;7.37;;;3.27;;
18455;SDS011;9357;49.900;8.208;2023-09-18T06:07:13;9.57;;;3.50;;
18455;SDS011;9357;49.900;8.208;2023-09-18T06:08:46;6.73;;;3.27;;
18455;SDS011;9357;49.900;8.208;2023-09-18T06:10:18;13.83;;;3.60;;
18455;SDS011;9357;49.900;8.208;2023-09-18T06:11:51;8.03;;;3.57;;
18455;SDS011;9357;49.900;8.208;2023-09-18T06:13:24;10.43;;;3.80;;
18455;SDS011;9357;49.900;8.208;2023-09-18T06:14:57;8.00;;;3.60;;
18455;SDS011;9357;49.900;8.208;2023-09-18T06:16:29;9.73;;;3.50;;
18455;SDS011;9357;49.900;8.208;2023-09-18T06:18:04;7.73;;;3.40;;
18455;SDS011;9357;49.900;8.208;2023-09-18T06:19:38;13.20;;;3.47;;
18455;SDS011;9357;49.900;8.208;2023-09-18T06:21:10;7.63;;;3.60;;
18455;SDS011;9357;49.900;8.208;2023-09-18T06:22:43;7.40;;;3.30;;
18455;SDS011;9357;49.900;8.208;2023-09-18T06:24:15;10.00;;;3.50;;
18455;SDS011;9357;49.900;8.208;2023-09-18T06:25:47;10.27;;;3.70;;
18455;SDS011;9357;49.900;8.208;2023-09-18T06:27:26;8.60;;;3.57;;
18455;SDS011;9357;49.900;8.208;2023-09-18T06:28:59;9.20;;;3.83;;
18455;SDS011;9357;49.900;8.208;2023-09-18T06:30:33;7.43;;;3.33;;
18455;SDS011;9357;49.900;8.208;2023-09-18T06:32:08;7.33;;;3.30;;
18455;SDS011;9357;49.900;8.208;2023-09-18T06:33:41;8.43;;;3.57;;
18455;SDS011;9357;49.900;8.208;2023-09-18T06:35:14;9.60;;;3.70;;
18455;SDS011;9357;49.900;8.208;2023-09-18T06:36:47;8.77;;;3.47;;
18455;SDS011;9357;49.900;8.208;2023-09-18T06:38:19;14.40;;;3.77;;
18455;SDS011;9357;49.900;8.208;2023-09-18T06:39:51;8.63;;;3.80;;
18455;SDS011;9357;49.900;8.208;2023-09-18T06:41:23;7.23;;;3.80;;
18455;SDS011;9357;49.900;8.208;2023-09-18T06:42:59;7.70;;;3.43;;
18455;SDS011;9357;49.900;8.208;2023-09-18T06:44:31;7.57;;;3.70;;
18455;SDS011;9357;49.900;8.208;2023-09-18T06:46:04;7.43;;;3.57;;
18455;SDS011;9357;49.900;8.208;2023-09-18T06:47:38;9.50;;;3.70;;
18455;SDS011;9357;49.900;8.208;2023-09-18T06:49:12;9.03;;;3.57;;
18455;SDS011;9357;49.900;8.208;2023-09-18T06:50:44;9.23;;;3.37;;
18455;SDS011;9357;49.900;8.208;2023-09-18T06:52:17;10.93;;;3.63;;
18455;SDS011;9357;49.900;8.208;2023-09-18T06:53:48;9.87;;;3.70;;
18455;SDS011;9357;49.900;8.208;2023-09-18T06:55:21;7.57;;;3.50;;
18455;SDS011;9357;49.900;8.208;2023-09-18T06:56:53;9.80;;;3.80;;
18455;SDS011;9357;49.900;8.208;2023-09-18T06:58:26;9.70;;;3.37;;
18455;SDS011;9357;49.900;8.208;2023-09-18T06:59:58;12.03;;;3.40;;
18455;SDS011;9357;49.900;8.208;2023-09-18T07:01:31;10.67;;;3.90;;
18455;SDS011;9357;49.900;8.208;2023-09-18T07:03:04;9.20;;;3.63;;
18455;SDS011;9357;49.900;8.208;2023-09-18T07:04:38;10.43;;;3.93;;
18455;SDS011;9357;49.900;8.208;2023-09-18T07:06:17;12.43;;;3.70;;
18455;SDS011;9357;49.900;8.208;2023-09-18T07:07:51;10.23;;;3.93;;
18455;SDS011;9357;49.900;8.208;2023-09-18T07:09:23;10.37;;;3.87;;
18455;SDS011;9357;49.900;8.208;2023-09-18T07:10:56;12.43;;;3.80;;
18455;SDS011;9357;49.900;8.208;2023-09-18T07:12:28;12.73;;;4.00;;
18455;SDS011;9357;49.900;8.208;2023-09-18T07:14:00;10.00;;;3.67;;
18455;SDS011;9357;49.900;8.208;2023-09-18T07:15:33;14.30;;;3.70;;
18455;SDS011;9357;49.900;8.208;2023-09-18T07:17:05;10.00;;;3.97;;
18455;SDS011;9357;49.900;8.208;2023-09-18T07:18:38;13.33;;;3.83;;
18455;SDS011;9357;49.900;8.208;2023-09-18T07:20:11;11.93;;;3.60;;
18455;SDS011;9357;49.900;8.208;2023-09-18T07:21:46;10.10;;;3.60;;
18455;SDS011;9357;49.900;8.208;2023-09-18T07:23:19;6.80;;;3.63;;
18455;SDS011;9357;49.900;8.208;2023-09-18T07:24:50;12.40;;;4.10;;
18455;SDS011;9357;49.900;8.208;2023-09-18T07:26:23;7.37;;;3.80;;
18455;SDS011;9357;49.900;8.208;2023-09-18T07:27:55;9.83;;;3.70;;
18455;SDS011;9357;49.900;8.208;2023-09-18T07:29:28;8.80;;;3.57;;
18455;SDS011;9357;49.900;8.208;2023-09-18T07:31:04;11.37;;;4.27;;
18455;SDS011;9357;49.900;8.208;2023-09-18T07:32:38;11.40;;;4.07;;
18455;SDS011;9357;49.900;8.208;2023-09-18T07:34:11;11.67;;;3.93;;
18455;SDS011;9357;49.900;8.208;2023-09-18T07:35:46;12.17;;;3.83;;
18455;SDS011;9357;49.900;8.208;2023-09-18T07:37:19;11.07;;;3.50;;
18455;SDS011;9357;49.900;8.208;2023-09-18T07:38:53;11.20;;;3.90;;
18455;SDS011;9357;49.900;8.208;2023-09-18T07:40:25;12.03;;;3.70;;
18455;SDS011;9357;49.900;8.208;2023-09-18T07:41:59;8.67;;;3.70;;
18455;SDS011;9357;49.900;8.208;2023-09-18T07:43:31;11.00;;;3.73;;
18455;SDS011;9357;49.900;8.208;2023-09-18T07:45:04;10.30;;;3.57;;
18455;SDS011;9357;49.900;8.208;2023-09-18T07:46:36;10.03;;;3.53;;
18455;SDS011;9357;49.900;8.208;2023-09-18T07:48:09;11.27;;;3.93;;
18455;SDS011;9357;49.900;8.208;2023-09-18T07:49:41;9.73;;;3.90;;
18455;SDS011;9357;49.900;8.208;2023-09-18T07:51:15;10.20;;;3.80;;
18455;SDS011;9357;49.900;8.208;2023-09-18T07:52:47;7.50;;;3.50;;
18455;SDS011;9357;49.900;8.208;2023-09-18T07:54:20;10.07;;;3.30;;
18455;SDS011;9357;49.900;8.208;2023-09-18T07:55:55;9.20;;;3.50;;
18455;SDS011;9357;49.900;8.208;2023-09-18T07:57:30;11.80;;;3.57;;
18455;SDS011;9357;49.900;8.208;2023-09-18T07:59:03;6.63;;;3.10;;
18455;SDS011;9357;49.900;8.208;2023-09-18T08:00:36;9.67;;;3.73;;
18455;SDS011;9357;49.900;8.208;2023-09-18T08:02:08;7.27;;;3.63;;
18455;SDS011;9357;49.900;8.208;2023-09-18T08:03:41;8.50;;;3.37;;
18455;SDS011;9357;49.900;8.208;2023-09-18T08:05:13;8.50;;;3.50;;
18455;SDS011;9357;49.900;8.208;2023-09-18T08:06:47;7.63;;;3.00;;
18455;SDS011;9357;49.900;8.208;2023-09-18T08:08:20;8.70;;;3.10;;
18455;SDS011;9357;49.900;8.208;2023-09-18T08:09:53;8.83;;;3.07;;
18455;SDS011;9357;49.900;8.208;2023-09-18T08:11:26;10.10;;;2.93;;
18455;SDS011;9357;49.900;8.208;2023-09-18T08:12:59;7.80;;;2.60;;
18455;SDS011;9357;49.900;8.208;2023-09-18T08:14:30;5.20;;;2.40;;
18455;SDS011;9357;49.900;8.208;2023-09-18T08:16:06;6.47;;;2.60;;
18455;SDS011;9357;49.900;8.208;2023-09-18T08:17:40;5.83;;;2.30;;
18455;SDS011;9357;49.900;8.208;2023-09-18T08:19:14;5.33;;;2.30;;
18455;SDS011;9357;49.900;8.208;2023-09-18T08:20:48;3.40;;;2.20;;
18455;SDS011;9357;49.900;8.208;2023-09-18T08:22:22;5.30;;;2.30;;
18455;SDS011;9357;49.900;8.208;2023-09-18T08:23:54;7.03;;;2.40;;
18455;SDS011;9357;49.900;8.208;2023-09-18T08:25:27;5.77;;;2.10;;
18455;SDS011;9357;49.900;8.208;2023-09-18T08:26:59;3.03;;;2.00;;
18455;SDS011;9357;49.900;8.208;2023-09-18T08:28:32;6.40;;;2.57;;
18455;SDS011;9357;49.900;8.208;2023-09-18T08:30:04;4.77;;;2.13;;
18455;SDS011;9357;49.900;8.208;2023-09-18T08:31:38;5.30;;;2.27;;
18455;SDS011;9357;49.900;8.208;2023-09-18T08:33:11;6.20;;;2.10;;
18455;SDS011;9357;49.900;8.208;2023-09-18T08:34:43;5.10;;;2.00;;
18455;SDS011;9357;49.900;8.208;2023-09-18T08:36:15;7.43;;;2.30;;
18455;SDS011;9357;49.900;8.208;2023-09-18T08:37:48;3.43;;;1.83;;
18455;SDS011;9357;49.900;8.208;2023-09-18T08:39:21;5.30;;;2.10;;
18455;SDS011;9357;49.900;8.208;2023-09-18T08:40:53;3.87;;;2.10;;
18455;SDS011;9357;49.900;8.208;2023-09-18T08:42:27;4.47;;;1.73;;
18455;SDS011;9357;49.900;8.208;2023-09-18T08:44:03;5.90;;;1.97;;
18455;SDS011;9357;49.900;8.208;2023-09-18T08:45:43;3.17;;;1.93;;
18455;SDS011;9357;49.900;8.208;2023-09-18T08:47:18;3.77;;;1.80;;
18455;SDS011;9357;49.900;8.208;2023-09-18T08:48:50;5.57;;;2.17;;
18455;SDS011;9357;49.900;8.208;2023-09-18T08:50:25;4.43;;;1.90;;
18455;SDS011;9357;49.900;8.208;2023-09-18T08:51:58;4.57;;;1.87;;
18455;SDS011;9357;49.900;8.208;2023-09-18T08:53:34;4.30;;;1.70;;
18455;SDS011;9357;49.900;8.208;2023-09-18T08:55:07;5.47;;;2.00;;
18455;SDS011;9357;49.900;8.208;2023-09-18T08:56:41;3.63;;;1.47;;
18455;SDS011;9357;49.900;8.208;2023-09-18T08:58:14;3.23;;;1.83;;
18455;SDS011;9357;49.900;8.208;2023-09-18T08:59:50;4.97;;;1.60;;
18455;SDS011;9357;49.900;8.208;2023-09-18T09:01:25;4.53;;;1.80;;
18455;SDS011;9357;49.900;8.208;2023-09-18T09:02:58;3.70;;;1.70;;
18455;SDS011;9357;49.900;8.208;2023-09-18T09:04:31;3.17;;;1.80;;
18455;SDS011;9357;49.900;8.208;2023-09-18T09:06:02;3.33;;;1.80;;
18455;SDS011;9357;49.900;8.208;2023-09-18T09:07:36;3.00;;;1.73;;
18455;SDS011;9357;49.900;8.208;2023-09-18T09:09:09;2.57;;;1.40;;
18455;SDS011;9357;49.900;8.208;2023-09-18T09:10:44;3.57;;;1.80;;
18455;SDS011;9357;49.900;8.208;2023-09-18T09:12:17;4.17;;;1.73;;
18455;SDS011;9357;49.900;8.208;2023-09-18T09:14:19;5.73;;;1.97;;
18455;SDS011;9357;49.900;8.208;2023-09-18T09:15:59;3.20;;;1.70;;
18455;SDS011;9357;49.900;8.208;2023-09-18T09:17:32;2.37;;;1.50;;
18455;SDS011;9357;49.900;8.208;2023-09-18T09:19:04;3.77;;;1.40;;
18455;SDS011;9357;49.900;8.208;2023-09-18T09:20:37;4.43;;;1.70;;
18455;SDS011;9357;49.900;8.208;2023-09-18T09:22:08;3.87;;;1.47;;
18455;SDS011;9357;49.900;8.208;2023-09-18T09:23:45;2.53;;;1.77;;
18455;SDS011;9357;49.900;8.208;2023-09-18T09:25:22;4.57;;;1.57;;
18455;SDS011;9357;49.900;8.208;2023-09-18T09:26:59;3.90;;;1.80;;
18455;SDS011;9357;49.900;8.208;2023-09-18T09:28:32;3.07;;;1.43;;
18455;SDS011;9357;49.900;8.208;2023-09-18T09:30:05;4.90;;;1.70;;